createdAt,value
2019-02-14T00:01:58.362Z,7.20
2019-02-14T00:04:27.461Z,7.20
2019-02-14T00:06:56.764Z,7.20
2019-02-14T00:09:25.735Z,7.20
2019-02-14T00:11:55.255Z,7.10
2019-02-14T00:14:24.130Z,7.20
2019-02-14T00:16:55.385Z,7.20
2019-02-14T00:19:24.882Z,7.10
2019-02-14T00:21:53.827Z,7.10
2019-02-14T00:24:22.783Z,7.10
2019-02-14T00:26:52.161Z,7.10
2019-02-14T00:29:22.443Z,7.10
2019-02-14T00:31:51.436Z,7.10
2019-02-14T00:34:20.642Z,7.10
2019-02-14T00:36:49.596Z,7.10
2019-02-14T00:39:18.603Z,7.10
2019-02-14T00:41:47.619Z,7.20
2019-02-14T00:44:16.874Z,7.20
2019-02-14T00:46:45.819Z,7.20
2019-02-14T00:49:14.846Z,7.20
2019-02-14T00:51:44.066Z,7.20
2019-02-14T00:54:13.003Z,7.20
2019-02-14T00:56:41.947Z,7.20
2019-02-14T00:59:10.886Z,7.20
2019-02-14T01:01:39.881Z,7.20
2019-02-14T01:04:09.046Z,7.30
2019-02-14T01:06:38.178Z,7.30
2019-02-14T01:09:07.486Z,7.20
2019-02-14T01:11:36.467Z,7.30
2019-02-14T01:14:05.651Z,7.30
2019-02-14T01:16:34.924Z,7.30
2019-02-14T01:19:03.958Z,7.30
2019-02-14T01:21:32.917Z,7.30
2019-02-14T01:24:02.200Z,7.30
2019-02-14T01:26:31.238Z,7.30
2019-02-14T01:29:00.119Z,7.30
2019-02-14T01:31:29.067Z,7.30
2019-02-14T01:33:58.032Z,7.30
2019-02-14T01:36:27.022Z,7.30
2019-02-14T01:38:56.043Z,7.30
2019-02-14T01:41:25.323Z,7.30
2019-02-14T01:43:54.302Z,7.30
2019-02-14T01:46:23.305Z,7.40
2019-02-14T01:48:52.253Z,7.40
2019-02-14T01:51:21.271Z,7.30
2019-02-14T01:53:50.222Z,7.40
2019-02-14T01:56:21.532Z,7.30
2019-02-14T01:58:50.482Z,7.30
2019-02-14T02:01:20.871Z,7.30
2019-02-14T02:03:50.328Z,7.30
2019-02-14T02:06:19.382Z,7.30
2019-02-14T02:08:48.483Z,7.20
2019-02-14T02:11:17.602Z,7.20
2019-02-14T02:13:46.562Z,7.20
2019-02-14T02:16:15.534Z,7.20
2019-02-14T02:18:44.411Z,7.20
2019-02-14T02:21:13.367Z,7.20
2019-02-14T02:23:42.354Z,7.20
2019-02-14T02:26:12.202Z,7.10
2019-02-14T02:28:41.431Z,7.10
2019-02-14T02:31:10.496Z,7.10
2019-02-14T02:33:39.442Z,7.10
2019-02-14T02:36:08.375Z,7.10
2019-02-14T02:38:37.362Z,7.10
2019-02-14T02:41:09.113Z,7.10
2019-02-14T02:43:38.072Z,7.10
2019-02-14T02:46:07.073Z,7.20
2019-02-14T02:48:36.029Z,7.20
2019-02-14T02:51:05.684Z,7.20
2019-02-14T02:53:34.634Z,7.20
2019-02-14T02:56:03.924Z,7.20
2019-02-14T02:58:32.969Z,7.20
2019-02-14T03:01:02.268Z,7.20
2019-02-14T03:03:31.280Z,7.20
2019-02-14T03:06:09.934Z,7.20
2019-02-14T03:08:30.858Z,7.20
2019-02-14T03:10:59.794Z,7.20
2019-02-14T03:13:28.767Z,7.20
2019-02-14T03:15:57.740Z,7.20
2019-02-14T03:18:26.709Z,7.20
2019-02-14T03:20:55.887Z,7.30
2019-02-14T03:23:27.206Z,7.30
2019-02-14T03:25:56.227Z,7.20
2019-02-14T03:28:25.202Z,7.20
2019-02-14T03:30:54.170Z,7.20
2019-02-14T03:33:23.488Z,7.20
2019-02-14T03:35:52.680Z,7.20
2019-02-14T03:38:21.740Z,7.20
2019-02-14T03:40:50.927Z,7.20
2019-02-14T03:43:19.958Z,7.20
2019-02-14T03:45:48.822Z,7.20
2019-02-14T03:48:17.759Z,7.10
2019-02-14T03:50:46.689Z,7.20
2019-02-14T03:53:15.846Z,7.20
2019-02-14T03:55:45.146Z,7.20
2019-02-14T03:58:14.343Z,7.20
2019-02-14T04:00:43.338Z,7.20
2019-02-14T04:03:12.346Z,7.20
2019-02-14T04:05:41.342Z,7.20
2019-02-14T04:08:10.370Z,7.20
2019-02-14T04:10:39.304Z,7.20
2019-02-14T04:13:08.266Z,7.20
2019-02-14T04:15:37.761Z,7.20
2019-02-14T04:18:06.962Z,7.10
2019-02-14T04:20:36.243Z,7.10
2019-02-14T04:23:05.171Z,7.10
2019-02-14T04:25:34.199Z,7.10
2019-02-14T04:28:03.230Z,7.00
2019-02-14T04:30:32.483Z,7.10
2019-02-14T04:33:01.526Z,7.10
2019-02-14T04:35:30.518Z,7.10
2019-02-14T04:37:59.445Z,7.10
2019-02-14T04:40:33.573Z,7.10
2019-02-14T04:42:59.434Z,7.10
2019-02-14T04:45:28.481Z,7.10
2019-02-14T04:47:57.458Z,7.00
2019-02-14T04:50:26.401Z,7.00
2019-02-14T04:52:55.334Z,7.00
2019-02-14T04:55:24.449Z,7.00
2019-02-14T04:57:53.317Z,6.90
2019-02-14T05:00:24.842Z,6.90
2019-02-14T05:02:54.014Z,6.90
2019-02-14T05:05:22.991Z,6.90
2019-02-14T05:07:51.899Z,6.90
2019-02-14T05:10:20.860Z,6.90
2019-02-14T05:12:49.786Z,7.00
2019-02-14T05:15:18.821Z,6.90
2019-02-14T05:17:47.767Z,6.90
2019-02-14T05:20:16.714Z,6.90
2019-02-14T05:22:45.649Z,6.90
2019-02-14T05:25:14.583Z,6.90
2019-02-14T05:27:43.503Z,6.90
2019-02-14T05:30:13.325Z,6.90
2019-02-14T05:32:42.410Z,6.90
2019-02-14T05:35:11.519Z,6.90
2019-02-14T05:37:40.473Z,6.90
2019-02-14T05:40:09.871Z,6.90
2019-02-14T05:42:38.916Z,7.00
2019-02-14T05:45:08.644Z,7.00
2019-02-14T05:47:37.593Z,7.00
2019-02-14T05:50:08.026Z,7.00
2019-02-14T05:52:36.987Z,6.90
2019-02-14T05:55:06.845Z,7.00
2019-02-14T05:57:35.802Z,7.00
2019-02-14T06:00:07.541Z,7.00
2019-02-14T06:02:36.489Z,7.00
2019-02-14T06:05:06.473Z,6.90
2019-02-14T06:07:35.502Z,6.90
2019-02-14T06:10:04.672Z,6.90
2019-02-14T06:12:33.623Z,6.90
2019-02-14T06:15:02.550Z,6.90
2019-02-14T06:17:31.490Z,6.80
2019-02-14T06:20:00.337Z,6.90
2019-02-14T06:22:29.546Z,6.90
2019-02-14T06:24:58.722Z,6.80
2019-02-14T06:27:27.638Z,6.80
2019-02-14T06:30:01.939Z,6.80
2019-02-14T06:32:31.186Z,6.80
2019-02-14T06:35:00.366Z,6.80
2019-02-14T06:37:29.335Z,6.80
2019-02-14T06:39:58.258Z,6.80
2019-02-14T06:42:27.482Z,6.80
2019-02-14T06:44:57.766Z,6.80
2019-02-14T06:47:26.710Z,6.90
2019-02-14T06:49:55.635Z,6.90
2019-02-14T06:52:24.606Z,6.90
2019-02-14T06:54:53.456Z,7.00
2019-02-14T06:57:22.529Z,7.00
2019-02-14T06:59:51.456Z,7.00
2019-02-14T07:02:20.417Z,7.00
2019-02-14T07:04:51.690Z,7.00
2019-02-14T07:07:20.655Z,7.00
2019-02-14T07:09:49.630Z,7.10
2019-02-14T07:12:18.755Z,7.10
2019-02-14T07:14:47.942Z,7.10
2019-02-14T07:17:17.427Z,7.10
2019-02-14T07:19:46.417Z,7.20
2019-02-14T07:22:15.345Z,7.20
2019-02-14T07:24:44.378Z,7.20
2019-02-14T07:27:13.357Z,7.30
2019-02-14T07:29:42.540Z,7.40
2019-02-14T07:32:11.786Z,7.40
2019-02-14T07:34:43.134Z,7.50
2019-02-14T07:37:12.191Z,7.60
2019-02-14T07:39:41.286Z,7.60
2019-02-14T07:42:10.636Z,7.70
2019-02-14T07:44:39.907Z,7.70
2019-02-14T07:47:09.140Z,7.80
2019-02-14T07:49:38.290Z,7.80
2019-02-14T07:52:07.390Z,7.80
2019-02-14T07:54:36.336Z,7.80
2019-02-14T07:57:05.304Z,7.90
2019-02-14T07:59:34.246Z,7.90
2019-02-14T08:02:03.276Z,7.90
2019-02-14T08:04:32.235Z,7.90
2019-02-14T08:07:01.193Z,7.90
2019-02-14T08:09:30.110Z,7.90
2019-02-14T08:11:59.122Z,8.00
2019-02-14T08:14:28.130Z,8.00
2019-02-14T08:16:57.214Z,8.00
2019-02-14T08:19:26.315Z,8.10
2019-02-14T08:21:55.294Z,8.20
2019-02-14T08:24:24.287Z,8.20
2019-02-14T08:26:53.255Z,8.30
2019-02-14T08:29:22.742Z,8.40
2019-02-14T08:31:51.723Z,8.40
2019-02-14T08:34:20.659Z,8.50
2019-02-14T08:36:49.718Z,8.60
2019-02-14T08:39:18.696Z,8.50
2019-02-14T08:41:47.808Z,8.60
2019-02-14T08:44:16.761Z,8.60
2019-02-14T08:46:45.711Z,8.60
2019-02-14T08:49:14.630Z,8.60
2019-02-14T08:51:43.650Z,8.60
2019-02-14T08:54:12.880Z,8.60
2019-02-14T08:56:41.926Z,8.70
2019-02-14T08:59:10.874Z,8.70
2019-02-14T09:01:40.062Z,8.80
2019-02-14T09:04:09.016Z,8.90
2019-02-14T09:06:38.198Z,9.00
2019-02-14T09:09:07.485Z,9.10
2019-02-14T09:11:36.521Z,9.20
2019-02-14T09:14:05.563Z,9.20
2019-02-14T09:16:34.498Z,9.20
2019-02-14T09:19:03.475Z,9.20
2019-02-14T09:21:32.521Z,9.30
2019-02-14T09:24:01.531Z,9.40
2019-02-14T09:26:30.532Z,9.50
2019-02-14T09:28:59.493Z,9.70
2019-02-14T09:31:29.007Z,9.80
2019-02-14T09:33:58.039Z,9.90
2019-02-14T09:36:27.017Z,9.90
2019-02-14T09:38:56.511Z,10.10
2019-02-14T09:41:25.485Z,10.20
2019-02-14T09:43:54.962Z,10.20
2019-02-14T09:46:24.002Z,10.20
2019-02-14T09:48:53.357Z,10.30
2019-02-14T09:51:22.692Z,10.50
2019-02-14T09:53:51.646Z,10.70
2019-02-14T09:56:20.594Z,10.90
2019-02-14T09:58:49.569Z,11.00
2019-02-14T10:01:18.532Z,11.20
2019-02-14T10:03:47.482Z,11.40
2019-02-14T10:06:16.801Z,11.60
2019-02-14T10:08:45.767Z,11.70
2019-02-14T10:11:14.983Z,11.80
2019-02-14T10:13:45.127Z,11.80
2019-02-14T10:16:14.319Z,11.80
2019-02-14T10:18:43.326Z,11.80
2019-02-14T10:21:12.333Z,11.90
2019-02-14T10:23:41.238Z,11.90
2019-02-14T10:26:10.226Z,11.80
2019-02-14T10:28:39.104Z,12.00
2019-02-14T10:31:08.210Z,12.10
2019-02-14T10:33:37.235Z,12.10
2019-02-14T10:36:06.265Z,12.20
2019-02-14T10:38:35.159Z,12.30
2019-02-14T10:41:04.166Z,12.40
2019-02-14T10:43:33.194Z,12.50
2019-02-14T10:46:02.123Z,12.70
2019-02-14T10:48:31.074Z,13.00
2019-02-14T10:51:00.010Z,13.10
2019-02-14T10:53:29.070Z,13.20
2019-02-14T10:55:58.069Z,13.20
2019-02-14T10:58:27.100Z,13.30
2019-02-14T11:00:56.175Z,13.30
2019-02-14T11:03:25.158Z,13.50
2019-02-14T11:05:54.099Z,13.70
2019-02-14T11:08:31.379Z,13.90
2019-02-14T11:10:53.816Z,14.00
2019-02-14T11:13:22.812Z,14.00
2019-02-14T11:15:51.796Z,14.00
2019-02-14T11:18:21.458Z,14.10
2019-02-14T11:20:50.486Z,14.00
2019-02-14T11:23:19.422Z,14.10
2019-02-14T11:25:48.455Z,14.10
2019-02-14T11:28:17.474Z,14.00
2019-02-14T11:30:46.501Z,14.00
2019-02-14T11:33:15.444Z,14.00
2019-02-14T11:35:44.430Z,13.80
2019-02-14T11:38:13.421Z,13.50
2019-02-14T11:40:42.389Z,13.30
2019-02-14T11:43:11.310Z,13.10
2019-02-14T11:45:40.346Z,13.00
2019-02-14T11:48:09.275Z,13.00
2019-02-14T11:50:38.227Z,13.00
2019-02-14T11:53:13.840Z,12.90
2019-02-14T11:55:37.778Z,12.80
2019-02-14T11:58:06.796Z,12.70
2019-02-14T12:00:35.832Z,12.60
2019-02-14T12:03:04.776Z,12.40
2019-02-14T12:05:33.715Z,12.20
2019-02-14T12:08:02.627Z,12.20
2019-02-14T12:10:32.686Z,12.20
2019-02-14T12:13:01.543Z,12.20
2019-02-14T12:15:30.755Z,12.40
2019-02-14T12:18:00.027Z,12.50
2019-02-14T12:20:28.980Z,12.40
2019-02-14T12:22:57.919Z,12.00
2019-02-14T12:25:26.886Z,11.70
2019-02-14T12:27:55.898Z,11.40
2019-02-14T12:30:25.033Z,11.30
2019-02-14T12:32:54.010Z,11.30
2019-02-14T12:35:22.981Z,11.30
2019-02-14T12:37:52.348Z,11.40
2019-02-14T12:40:21.373Z,11.70
2019-02-14T12:42:50.307Z,11.90
2019-02-14T12:45:22.767Z,12.10
2019-02-14T12:47:50.651Z,12.20
2019-02-14T12:50:19.650Z,12.40
2019-02-14T12:52:48.824Z,12.40
2019-02-14T12:55:17.858Z,12.50
2019-02-14T12:57:46.786Z,12.50
2019-02-14T13:00:17.798Z,12.60
2019-02-14T13:02:46.734Z,12.70
2019-02-14T13:05:15.851Z,12.80
2019-02-14T13:07:44.886Z,12.80
2019-02-14T13:10:14.401Z,12.80
2019-02-14T13:12:43.464Z,12.80
2019-02-14T13:15:15.057Z,12.80
2019-02-14T13:17:44.093Z,12.70
2019-02-14T13:20:12.454Z,12.60
2019-02-14T13:22:41.728Z,12.70
2019-02-14T13:25:11.747Z,12.60
2019-02-14T13:27:40.854Z,12.70
2019-02-14T13:30:12.950Z,12.70
2019-02-14T13:32:42.171Z,12.80
2019-02-14T13:35:11.203Z,12.70
2019-02-14T13:37:40.586Z,12.60
2019-02-14T13:40:09.974Z,12.50
2019-02-14T13:42:38.932Z,12.50
2019-02-14T13:45:10.318Z,12.50
2019-02-14T13:47:39.523Z,12.50
2019-02-14T13:50:09.530Z,12.50
2019-02-14T13:52:38.827Z,12.50
2019-02-14T13:55:08.402Z,12.40
2019-02-14T13:57:37.623Z,12.40
2019-02-14T14:00:10.155Z,12.40
2019-02-14T14:02:39.117Z,12.40
2019-02-14T14:05:08.489Z,12.40
2019-02-14T14:07:40.448Z,12.40
2019-02-14T14:10:08.520Z,12.30
2019-02-14T14:12:37.643Z,12.20
2019-02-14T14:15:06.971Z,12.20
2019-02-14T14:17:35.937Z,12.20
2019-02-14T14:20:05.058Z,12.20
2019-02-14T14:22:34.278Z,12.10
2019-02-14T14:25:05.476Z,12.10
2019-02-14T14:27:34.454Z,12.10
2019-02-14T14:30:03.494Z,12.10
2019-02-14T14:32:32.458Z,12.00
2019-02-14T14:35:01.383Z,12.00
2019-02-14T14:37:30.420Z,11.90
2019-02-14T14:39:59.499Z,11.80
2019-02-14T14:42:56.402Z,11.70
2019-02-14T14:45:38.387Z,11.70
2019-02-14T14:48:08.275Z,11.70
2019-02-14T14:50:37.571Z,11.70
2019-02-14T14:53:07.653Z,11.60
2019-02-14T14:55:37.204Z,11.60
2019-02-14T14:58:06.439Z,11.50
2019-02-14T15:00:35.997Z,11.50
2019-02-14T15:03:05.336Z,11.40
2019-02-14T15:05:34.535Z,11.40
2019-02-14T15:08:03.595Z,11.30
2019-02-14T15:10:32.785Z,11.30
2019-02-14T15:13:01.780Z,11.30
2019-02-14T15:15:30.690Z,11.20
2019-02-14T15:18:00.623Z,11.10
2019-02-14T15:20:29.557Z,11.10
2019-02-14T15:22:58.503Z,11.00
2019-02-14T15:25:27.819Z,11.00
2019-02-14T15:27:57.030Z,10.90
2019-02-14T15:30:25.934Z,10.90
2019-02-14T15:32:54.930Z,10.80
2019-02-14T15:35:23.964Z,10.70
2019-02-14T15:37:52.913Z,10.70
2019-02-14T15:40:21.971Z,10.60
2019-02-14T15:42:50.934Z,10.50
2019-02-14T15:45:20.235Z,10.40
2019-02-14T15:47:49.255Z,10.30
2019-02-14T15:50:18.198Z,10.20
2019-02-14T15:52:47.478Z,10.00
2019-02-14T15:55:16.679Z,9.90
2019-02-14T15:57:45.727Z,9.80
2019-02-14T16:00:15.550Z,9.60
2019-02-14T16:02:44.878Z,9.50
2019-02-14T16:05:14.612Z,9.40
2019-02-14T16:07:44.514Z,9.20
2019-02-14T16:10:18.631Z,9.10
2019-02-14T16:12:45.843Z,8.90
2019-02-14T16:15:14.893Z,8.70
2019-02-14T16:17:43.822Z,8.50
2019-02-14T16:20:15.174Z,8.30
2019-02-14T16:22:44.242Z,8.20
2019-02-14T16:25:13.288Z,8.00
2019-02-14T16:27:42.251Z,7.90
2019-02-14T16:30:11.546Z,7.80
2019-02-14T16:32:40.826Z,7.70
2019-02-14T16:35:09.927Z,7.60
2019-02-14T16:37:38.893Z,7.60
2019-02-14T16:40:08.582Z,7.50
2019-02-14T16:42:37.611Z,7.30
2019-02-14T16:45:06.784Z,7.30
2019-02-14T16:47:35.995Z,7.20
2019-02-14T16:50:05.694Z,7.00
2019-02-14T16:52:34.959Z,6.90
2019-02-14T16:55:04.011Z,6.70
2019-02-14T16:57:33.063Z,6.60
2019-02-14T17:00:02.031Z,6.50
2019-02-14T17:02:31.089Z,6.40
2019-02-14T17:05:00.112Z,6.30
2019-02-14T17:07:29.442Z,6.20
2019-02-14T17:09:58.464Z,6.10
2019-02-14T17:12:27.732Z,6.10
2019-02-14T17:14:56.969Z,5.90
2019-02-14T17:17:27.850Z,5.80
2019-02-14T17:19:56.538Z,5.60
2019-02-14T17:22:25.690Z,5.50
2019-02-14T17:24:54.969Z,5.40
2019-02-14T17:27:24.150Z,5.20
2019-02-14T17:29:53.176Z,5.20
2019-02-14T17:32:22.196Z,5.00
2019-02-14T17:34:51.218Z,5.00
2019-02-14T17:37:20.231Z,4.90
2019-02-14T17:39:49.218Z,4.90
2019-02-14T17:42:18.230Z,4.90
2019-02-14T17:44:47.483Z,5.10
2019-02-14T17:47:16.406Z,5.10
2019-02-14T17:49:45.349Z,5.20
2019-02-14T17:52:14.547Z,5.10
2019-02-14T17:54:43.583Z,5.00
2019-02-14T17:57:12.679Z,4.90
2019-02-14T17:59:44.102Z,4.70
2019-02-14T18:02:14.179Z,4.60
2019-02-14T18:04:43.463Z,4.50
2019-02-14T18:07:13.042Z,4.40
2019-02-14T18:09:42.079Z,4.30
2019-02-14T18:12:11.085Z,4.20
2019-02-14T18:14:40.363Z,4.10
2019-02-14T18:17:09.303Z,4.00
2019-02-14T18:19:38.266Z,4.00
2019-02-14T18:22:07.618Z,3.90
2019-02-14T18:24:36.588Z,3.80
2019-02-14T18:27:05.811Z,3.70
2019-02-14T18:29:35.028Z,3.70
2019-02-14T18:32:03.981Z,3.60
2019-02-14T18:34:33.038Z,3.60
2019-02-14T18:37:02.010Z,3.50
2019-02-14T18:39:31.030Z,3.50
2019-02-14T18:42:00.399Z,3.50
2019-02-14T18:44:29.720Z,3.50
2019-02-14T18:46:58.760Z,3.40
2019-02-14T18:49:27.707Z,3.30
2019-02-14T18:51:56.689Z,3.30
2019-02-14T18:54:25.732Z,3.40
2019-02-14T18:56:54.688Z,3.30
2019-02-14T18:59:23.638Z,3.30
2019-02-14T19:01:52.595Z,3.20
2019-02-14T19:04:21.526Z,3.20
2019-02-14T19:06:50.731Z,3.10
2019-02-14T19:09:19.664Z,3.10
2019-02-14T19:11:48.653Z,3.10
2019-02-14T19:14:17.615Z,3.10
2019-02-14T19:16:46.944Z,3.10
2019-02-14T19:19:15.888Z,3.00
2019-02-14T19:21:45.781Z,3.00
2019-02-14T19:24:14.757Z,2.90
2019-02-14T19:26:43.729Z,2.80
2019-02-14T19:29:12.741Z,2.80
2019-02-14T19:31:41.774Z,2.80
2019-02-14T19:34:10.804Z,2.70
2019-02-14T19:36:39.840Z,2.70
2019-02-14T19:39:08.792Z,2.70
2019-02-14T19:41:38.291Z,2.60
2019-02-14T19:44:07.406Z,2.70
2019-02-14T19:46:36.706Z,2.50
2019-02-14T19:49:05.699Z,2.50
2019-02-14T19:51:34.680Z,2.50
2019-02-14T19:54:03.662Z,2.40
2019-02-14T19:56:32.911Z,2.40
2019-02-14T19:59:01.892Z,2.30
2019-02-14T20:01:30.882Z,2.30
2019-02-14T20:04:00.256Z,2.30
2019-02-14T20:06:29.279Z,2.30
2019-02-14T20:08:58.288Z,2.20
2019-02-14T20:11:36.302Z,2.20
2019-02-14T20:13:58.010Z,2.10
2019-02-14T20:16:27.006Z,2.10
2019-02-14T20:18:55.939Z,2.10
2019-02-14T20:21:24.882Z,2.10
2019-02-14T20:23:53.870Z,2.10
2019-02-14T20:26:22.810Z,2.00
2019-02-14T20:28:51.846Z,1.90
2019-02-14T20:31:20.720Z,1.90
2019-02-14T20:33:50.019Z,1.80
2019-02-14T20:36:18.967Z,1.80
2019-02-14T20:38:48.099Z,1.70
2019-02-14T20:41:17.131Z,1.70
2019-02-14T20:43:46.358Z,1.60
2019-02-14T20:46:15.507Z,1.60
2019-02-14T20:48:44.626Z,1.60
2019-02-14T20:51:13.603Z,1.60
2019-02-14T20:53:42.662Z,1.60
2019-02-14T20:56:11.717Z,1.70
2019-02-14T20:58:40.680Z,1.60
2019-02-14T21:01:09.815Z,1.60
2019-02-14T21:03:39.126Z,1.50
2019-02-14T21:06:08.520Z,1.40
2019-02-14T21:08:37.768Z,1.40
2019-02-14T21:11:06.798Z,1.40
2019-02-14T21:13:36.119Z,1.40
2019-02-14T21:16:05.550Z,1.30
2019-02-14T21:18:34.611Z,1.30
2019-02-14T21:21:03.610Z,1.20
2019-02-14T21:23:32.854Z,1.20
2019-02-14T21:26:01.815Z,1.20
2019-02-14T21:28:30.779Z,1.20
2019-02-14T21:30:59.708Z,1.20
2019-02-14T21:33:28.681Z,1.10
2019-02-14T21:35:57.715Z,1.10
2019-02-14T21:38:27.101Z,1.10
2019-02-14T21:40:56.405Z,1.10
2019-02-14T21:43:25.727Z,1.10
2019-02-14T21:45:54.751Z,1.10
2019-02-14T21:48:23.716Z,1.10
2019-02-14T21:50:52.742Z,1.00
2019-02-14T21:53:21.690Z,1.00
2019-02-14T21:55:51.353Z,1.00
2019-02-14T21:58:20.802Z,0.90
2019-02-14T22:00:49.773Z,0.90
2019-02-14T22:03:18.917Z,0.90
2019-02-14T22:05:47.886Z,0.80
2019-02-14T22:08:17.196Z,0.80
2019-02-14T22:10:46.238Z,0.80
2019-02-14T22:13:15.190Z,0.70
2019-02-14T22:15:44.372Z,0.70
2019-02-14T22:18:13.281Z,0.70
2019-02-14T22:20:42.352Z,0.70
2019-02-14T22:23:11.363Z,0.70
2019-02-14T22:25:40.360Z,0.70
2019-02-14T22:28:09.304Z,0.70
2019-02-14T22:30:38.323Z,0.70
2019-02-14T22:33:07.415Z,0.60
2019-02-14T22:35:36.443Z,0.60
2019-02-14T22:38:05.381Z,0.60
2019-02-14T22:40:34.450Z,0.50
2019-02-14T22:43:03.506Z,0.50
2019-02-14T22:45:32.577Z,0.50
2019-02-14T22:48:01.531Z,0.40
2019-02-14T22:50:30.520Z,0.40
2019-02-14T22:52:59.447Z,0.40
2019-02-14T22:55:28.467Z,0.40
2019-02-14T22:57:57.406Z,0.40
2019-02-14T23:00:34.026Z,0.30
2019-02-14T23:03:03.189Z,0.30
2019-02-14T23:05:32.221Z,0.30
2019-02-14T23:08:01.250Z,0.30
2019-02-14T23:10:30.297Z,0.20
2019-02-14T23:12:59.320Z,0.20
2019-02-14T23:15:28.266Z,0.10
2019-02-14T23:17:57.510Z,0.10
2019-02-14T23:20:26.630Z,0.10
2019-02-14T23:22:55.642Z,0.00
2019-02-14T23:25:24.571Z,0.00
2019-02-14T23:27:53.591Z,-0.10
2019-02-14T23:30:22.650Z,-0.10
2019-02-14T23:32:51.650Z,-0.10
2019-02-14T23:35:20.682Z,-0.10
2019-02-14T23:37:49.622Z,-0.10
2019-02-14T23:40:18.670Z,-0.10
2019-02-14T23:42:47.650Z,-0.10
2019-02-14T23:45:16.636Z,-0.10
2019-02-14T23:47:45.656Z,-0.10
2019-02-14T23:50:14.695Z,-0.20
2019-02-14T23:52:43.718Z,-0.20
2019-02-14T23:55:12.784Z,-0.20
2019-02-14T23:57:42.113Z,-0.20
